createdAt,value
2023-04-18T00:00:25.176Z,17.13
2023-04-18T00:05:27.754Z,17.27
2023-04-18T00:10:29.830Z,17.60
2023-04-18T00:15:32.241Z,17.90
2023-04-18T00:20:34.270Z,17.60
2023-04-18T00:25:36.313Z,17.65
2023-04-18T00:30:38.383Z,17.42
2023-04-18T00:35:40.503Z,17.98
2023-04-18T00:40:43.276Z,17.85
2023-04-18T00:45:45.420Z,17.20
2023-04-18T00:50:47.487Z,17.42
2023-04-18T00:55:49.685Z,16.27
2023-04-18T01:00:52.091Z,16.80
2023-04-18T01:05:54.866Z,16.88
2023-04-18T01:10:57.053Z,17.05
2023-04-18T01:15:59.301Z,14.85
2023-04-18T01:21:01.789Z,16.50
2023-04-18T01:26:03.844Z,15.15
2023-04-18T01:31:05.990Z,16.50
2023-04-18T01:36:11.219Z,16.70
2023-04-18T01:41:13.321Z,16.90
2023-04-18T01:46:17.764Z,17.15
2023-04-18T01:51:19.858Z,16.52
2023-04-18T01:56:22.205Z,15.95
2023-04-18T02:01:24.360Z,13.77
2023-04-18T02:06:26.890Z,14.30
2023-04-18T02:11:29.923Z,15.18
2023-04-18T02:16:32.106Z,13.98
2023-04-18T02:21:34.210Z,13.23
2023-04-18T02:26:36.447Z,13.90
2023-04-18T02:31:41.849Z,12.82
2023-04-18T02:36:44.074Z,12.30
2023-04-18T02:41:46.101Z,12.05
2023-04-18T02:46:48.267Z,12.38
2023-04-18T02:51:50.525Z,12.77
2023-04-18T02:56:54.561Z,12.25
2023-04-18T03:02:20.803Z,11.60
2023-04-18T03:07:28.521Z,12.02
2023-04-18T03:12:31.345Z,11.80
2023-04-18T03:17:33.906Z,11.82
2023-04-18T03:22:35.993Z,11.95
2023-04-18T03:27:38.144Z,12.68
2023-04-18T03:32:41.962Z,11.68
2023-04-18T03:37:44.303Z,11.55
2023-04-18T03:42:49.631Z,11.52
2023-04-18T03:47:52.048Z,10.95
2023-04-18T03:52:55.870Z,11.52
2023-04-18T03:57:59.126Z,11.50
2023-04-18T04:03:04.702Z,11.75
2023-04-18T04:08:07.315Z,10.93
2023-04-18T04:13:10.132Z,11.27
2023-04-18T04:18:15.252Z,11.88
2023-04-18T04:23:19.200Z,11.13
2023-04-18T04:28:23.279Z,11.77
2023-04-18T04:33:33.240Z,11.20
2023-04-18T04:38:40.512Z,10.18
2023-04-18T04:43:43.680Z,11.00
2023-04-18T04:48:49.656Z,10.70
2023-04-18T04:53:51.827Z,11.57
2023-04-18T04:58:55.955Z,11.07
2023-04-18T05:04:01.447Z,10.85
2023-04-18T05:09:03.662Z,11.60
2023-04-18T05:14:05.698Z,11.32
2023-04-18T05:19:07.847Z,10.48
2023-04-18T05:24:10.176Z,11.40
2023-04-18T05:29:12.295Z,10.45
2023-04-18T05:34:14.665Z,11.50
2023-04-18T05:39:17.050Z,11.57
2023-04-18T05:44:19.944Z,11.80
2023-04-18T05:49:22.261Z,12.07
2023-04-18T05:54:27.345Z,10.80
2023-04-18T05:59:29.471Z,10.43
2023-04-18T06:04:31.529Z,10.80
2023-04-18T06:09:34.015Z,11.18
2023-04-18T06:14:36.045Z,11.68
2023-04-18T06:19:39.539Z,10.80
2023-04-18T06:24:41.719Z,11.23
2023-04-18T06:29:43.906Z,10.23
2023-04-18T06:34:46.240Z,10.45
2023-04-18T06:39:48.336Z,10.40
2023-04-18T06:44:50.719Z,10.50
2023-04-18T06:49:52.874Z,12.27
2023-04-18T06:54:55.007Z,9.40
2023-04-18T06:59:57.226Z,10.82
2023-04-18T07:04:59.458Z,11.05
2023-04-18T07:10:01.925Z,10.80
2023-04-18T07:15:04.877Z,10.43
2023-04-18T07:20:07.590Z,10.60
2023-04-18T07:25:09.713Z,10.65
2023-04-18T07:30:12.044Z,10.82
2023-04-18T07:35:14.117Z,9.95
2023-04-18T07:40:16.648Z,10.40
2023-04-18T07:45:19.110Z,9.52
2023-04-18T07:50:21.230Z,9.60
2023-04-18T07:55:24.522Z,9.63
2023-04-18T08:00:26.880Z,9.18
2023-04-18T08:05:29.235Z,9.20
2023-04-18T08:10:31.256Z,8.88
2023-04-18T08:15:33.406Z,8.60
2023-04-18T08:20:37.226Z,8.82
2023-04-18T08:25:39.328Z,8.85
2023-04-18T08:30:42.348Z,9.18
2023-04-18T08:35:44.452Z,8.90
2023-04-18T08:40:47.069Z,8.52
2023-04-18T08:45:49.180Z,9.43
2023-04-18T08:50:57.080Z,8.85
2023-04-18T08:56:00.242Z,8.23
2023-04-18T09:01:02.460Z,8.90
2023-04-18T09:06:13.603Z,8.88
2023-04-18T09:16:46.581Z,8.88
2023-04-18T09:21:57.843Z,8.15
2023-04-18T09:27:01.241Z,8.60
2023-04-18T09:32:03.531Z,8.73
2023-04-18T09:37:12.298Z,8.25
2023-04-18T09:42:14.582Z,7.15
2023-04-18T09:47:16.680Z,7.88
2023-04-18T09:52:20.434Z,7.40
2023-04-18T09:57:26.865Z,8.15
2023-04-18T10:02:34.944Z,7.88
2023-04-18T10:07:38.022Z,7.95
2023-04-18T10:12:47.879Z,7.50
2023-04-18T10:18:04.179Z,6.63
2023-04-18T10:23:43.058Z,6.47
2023-04-18T10:28:56.405Z,7.07
2023-04-18T10:34:05.394Z,6.22
2023-04-18T10:39:22.439Z,6.22
2023-04-18T10:44:24.807Z,6.20
2023-04-18T10:49:30.266Z,5.60
2023-04-18T10:54:38.980Z,5.40
2023-04-18T10:59:42.967Z,4.28
2023-04-18T11:04:52.679Z,4.15
2023-04-18T11:09:54.922Z,3.38
2023-04-18T11:14:57.869Z,3.20
2023-04-18T11:20:11.447Z,3.22
2023-04-18T11:25:13.954Z,3.20
2023-04-18T11:30:16.092Z,2.88
2023-04-18T11:35:18.363Z,4.40
2023-04-18T11:40:20.407Z,4.30
2023-04-18T11:45:22.560Z,4.60
2023-04-18T11:50:25.550Z,4.18
2023-04-18T11:55:28.048Z,5.20
2023-04-18T12:00:39.406Z,6.20
2023-04-18T12:05:44.558Z,7.17
2023-04-18T12:10:48.688Z,8.05
2023-04-18T12:15:50.864Z,8.73
2023-04-18T12:20:56.688Z,5.80
2023-04-18T12:26:06.093Z,7.25
2023-04-18T12:31:08.181Z,7.78
2023-04-18T12:36:10.370Z,7.00
2023-04-18T12:41:12.591Z,8.10
2023-04-18T12:46:14.626Z,7.88
2023-04-18T12:51:16.672Z,6.82
2023-04-18T12:56:18.855Z,8.32
2023-04-18T13:01:21.106Z,8.23
2023-04-18T13:06:24.426Z,8.27
2023-04-18T13:11:28.487Z,8.85
2023-04-18T13:16:31.100Z,8.10
2023-04-18T13:21:33.483Z,7.65
2023-04-18T13:26:35.642Z,7.93
2023-04-18T13:31:37.806Z,7.93
2023-04-18T13:36:39.991Z,9.23
2023-04-18T13:41:43.341Z,9.65
2023-04-18T13:46:45.695Z,9.05
2023-04-18T13:51:47.832Z,8.98
2023-04-18T13:56:50.015Z,10.02
2023-04-18T14:01:53.554Z,10.75
2023-04-18T14:06:55.586Z,11.45
2023-04-18T14:11:58.356Z,11.25
2023-04-18T14:17:00.604Z,12.20
2023-04-18T14:22:02.660Z,10.95
2023-04-18T14:27:04.640Z,11.07
2023-04-18T14:32:07.229Z,9.98
2023-04-18T14:37:09.522Z,11.75
2023-04-18T14:42:11.626Z,10.75
2023-04-18T14:47:13.667Z,11.52
2023-04-18T14:52:15.784Z,11.88
2023-04-18T14:57:18.117Z,12.93
2023-04-18T15:02:21.089Z,12.20
2023-04-18T15:07:23.325Z,12.48
2023-04-18T15:12:25.665Z,10.38
2023-04-18T15:17:28.323Z,11.70
2023-04-18T15:22:30.430Z,12.40
2023-04-18T15:27:32.546Z,12.05
2023-04-18T15:32:34.631Z,12.25
2023-04-18T15:37:36.828Z,11.70
2023-04-18T15:42:39.307Z,11.02
2023-04-18T15:47:41.698Z,12.75
2023-04-18T15:52:44.080Z,12.00
2023-04-18T15:57:46.412Z,12.35
2023-04-18T16:02:49.336Z,13.15
2023-04-18T16:07:53.736Z,12.55
2023-04-18T16:12:56.054Z,13.13
2023-04-18T16:17:58.259Z,11.57
2023-04-18T16:23:00.756Z,12.38
2023-04-18T16:28:02.798Z,12.05
2023-04-18T16:33:04.951Z,12.18
2023-04-18T16:38:06.961Z,12.10
2023-04-18T16:43:09.134Z,11.95
2023-04-18T16:48:11.204Z,11.48
2023-04-18T16:53:13.400Z,11.48
2023-04-18T16:58:15.393Z,12.18
2023-04-18T17:03:17.509Z,12.80
2023-04-18T17:08:19.563Z,12.32
2023-04-18T17:13:26.672Z,13.25
2023-04-18T17:18:29.380Z,14.00
2023-04-18T17:23:32.956Z,12.55
2023-04-18T17:28:36.166Z,13.05
2023-04-18T17:33:38.259Z,13.30
2023-04-18T17:38:40.545Z,12.75
2023-04-18T17:43:43.324Z,12.45
2023-04-18T17:48:45.932Z,12.38
2023-04-18T17:53:48.151Z,12.85
2023-04-18T17:58:50.613Z,13.40
2023-04-18T18:03:54.084Z,13.60
2023-04-18T18:08:56.633Z,13.60
2023-04-18T18:13:59.226Z,14.43
2023-04-18T18:19:01.324Z,12.90
2023-04-18T18:24:03.574Z,13.40
2023-04-18T18:29:09.074Z,13.13
2023-04-18T18:34:11.359Z,15.18
2023-04-18T18:39:16.069Z,12.80
2023-04-18T18:44:18.513Z,13.73
2023-04-18T18:49:20.914Z,13.75
2023-04-18T18:54:23.027Z,14.13
2023-04-18T18:59:25.186Z,12.57
2023-04-18T19:04:27.366Z,13.05
2023-04-18T19:09:29.496Z,12.95
2023-04-18T19:14:31.531Z,13.40
2023-04-18T19:19:33.615Z,13.23
2023-04-18T19:24:35.649Z,13.95
2023-04-18T19:29:37.722Z,14.38
2023-04-18T19:34:40.090Z,11.60
2023-04-18T19:39:42.216Z,13.32
2023-04-18T19:44:44.818Z,13.35
2023-04-18T19:49:46.927Z,12.32
2023-04-18T19:54:49.045Z,11.70
2023-04-18T19:59:51.318Z,13.10
2023-04-18T20:04:53.632Z,12.23
2023-04-18T20:09:56.252Z,12.38
2023-04-18T20:14:58.931Z,12.10
2023-04-18T20:20:01.487Z,13.07
2023-04-18T20:25:03.998Z,11.50
2023-04-18T20:30:06.511Z,12.18
2023-04-18T20:35:09.318Z,11.65
2023-04-18T20:40:11.572Z,11.45
2023-04-18T20:45:13.886Z,11.45
2023-04-18T20:50:18.080Z,10.32
2023-04-18T20:55:20.695Z,11.38
2023-04-18T21:00:23.217Z,11.20
2023-04-18T21:05:25.360Z,9.40
2023-04-18T21:10:27.484Z,10.60
2023-04-18T21:15:29.824Z,11.32
2023-04-18T21:20:34.109Z,11.32
2023-04-18T21:25:36.164Z,11.10
2023-04-18T21:30:38.185Z,11.07
2023-04-18T21:35:40.247Z,11.07
2023-04-18T21:40:42.264Z,11.85
2023-04-18T21:45:45.996Z,11.65
2023-04-18T21:50:54.599Z,11.68
2023-04-18T21:55:56.552Z,9.90
2023-04-18T22:00:58.999Z,11.23
2023-04-18T22:06:01.398Z,11.07
2023-04-18T22:11:04.593Z,11.48
2023-04-18T22:16:08.025Z,10.57
2023-04-18T22:21:10.144Z,10.10
2023-04-18T22:26:12.141Z,11.13
2023-04-18T22:31:14.250Z,10.65
2023-04-18T22:36:16.358Z,10.63
2023-04-18T22:41:18.328Z,11.30
2023-04-18T22:46:20.875Z,11.20
2023-04-18T22:51:23.402Z,11.20
2023-04-18T22:56:25.528Z,11.93
2023-04-18T23:01:27.612Z,11.45
2023-04-18T23:06:30.205Z,10.93
2023-04-18T23:11:32.186Z,12.63
2023-04-18T23:16:34.799Z,12.27
2023-04-18T23:21:36.958Z,12.70
2023-04-18T23:26:40.070Z,12.50
2023-04-18T23:31:42.111Z,12.85
2023-04-18T23:36:44.356Z,12.05
2023-04-18T23:41:46.331Z,12.88
2023-04-18T23:46:49.086Z,13.50
2023-04-18T23:51:51.330Z,13.40
2023-04-18T23:56:53.465Z,14.38
